Time;durP1;ratioP1;P1;durP2;ratioP2;P2;SDS_P1;SDS_P2;PMS_P1;PMS_P2;Temp;Humidity;BMP_temperature;BMP_pressure;BME280_temperature;BME280_humidity;BME280_pressure;Samples;Min_cycle;Max_cycle;Signal;HPM_P1;HPM_P2
2021/06/22 00:00:28;;;;;;;0.90;0.80;;;19.50;75.40;;;;;;6091116;23;20335;-72
2021/06/22 00:02:55;;;;;;;2.97;1.20;;;19.50;75.40;;;;;;6066932;23;20042;-72
2021/06/22 00:05:28;;;;;;;3.25;0.95;;;19.50;75.40;;;;;;6091307;23;20308;-73
2021/06/22 00:07:57;;;;;;;0.88;0.80;;;19.50;75.40;;;;;;6091507;23;20125;-73
2021/06/22 00:10:26;;;;;;;2.70;0.93;;;19.50;75.40;;;;;;6092579;23;20022;-73
2021/06/22 00:12:54;;;;;;;2.08;1.15;;;19.50;75.50;;;;;;6091062;23;20053;-73
2021/06/22 00:15:22;;;;;;;3.85;1.77;;;19.50;75.50;;;;;;6092156;23;20127;-74
2021/06/22 00:17:51;;;;;;;3.13;1.02;;;19.50;75.60;;;;;;6064106;23;20011;-72
2021/06/22 00:20:22;;;;;;;1.70;0.95;;;19.50;75.70;;;;;;6091994;23;20093;-72
2021/06/22 00:22:50;;;;;;;1.45;0.95;;;19.50;75.70;;;;;;6091415;23;20020;-73
2021/06/22 00:25:19;;;;;;;1.92;0.77;;;19.40;75.60;;;;;;6065923;23;20014;-73
2021/06/22 00:27:45;;;;;;;1.55;0.90;;;19.40;75.70;;;;;;6091889;23;20418;-73
2021/06/22 00:30:13;;;;;;;1.05;0.73;;;19.40;75.80;;;;;;6091144;23;20082;-73
2021/06/22 00:32:40;;;;;;;2.15;1.00;;;19.50;75.90;;;;;;6092032;23;20046;-74
2021/06/22 00:35:11;;;;;;;0.65;0.57;;;19.40;75.80;;;;;;6090899;23;20002;-74
2021/06/22 00:37:38;;;;;;;2.03;0.70;;;19.50;75.90;;;;;;6093246;23;20005;-74
2021/06/22 00:40:06;;;;;;;1.27;0.68;;;19.40;75.80;;;;;;6091123;23;20527;-72
2021/06/22 00:42:33;;;;;;;1.63;1.08;;;19.40;75.90;;;;;;6092681;23;19998;-74
2021/06/22 00:45:00;;;;;;;0.73;0.63;;;19.50;75.90;;;;;;6091610;23;20014;-73
2021/06/22 00:47:28;;;;;;;1.05;0.88;;;19.50;75.90;;;;;;6091259;23;20002;-74
2021/06/22 00:49:55;;;;;;;2.00;1.00;;;19.40;75.90;;;;;;6092547;23;20085;-74
2021/06/22 00:52:31;;;;;;;1.63;1.30;;;19.40;75.90;;;;;;6091345;23;20002;-74
2021/06/22 00:55:02;;;;;;;1.95;1.20;;;19.50;76.50;;;;;;6092578;23;20006;-73
2021/06/22 00:57:28;;;;;;;1.58;1.08;;;19.40;75.80;;;;;;6091695;23;20038;-70
2021/06/22 01:00:07;;;;;;;2.53;1.13;;;19.40;75.80;;;;;;6092982;23;20013;-73
2021/06/22 01:02:34;;;;;;;1.80;0.85;;;19.40;76.00;;;;;;6093252;23;20002;-74
2021/06/22 01:05:07;;;;;;;1.58;0.90;;;19.40;75.90;;;;;;6093291;23;20048;-73
2021/06/22 01:07:34;;;;;;;3.30;1.40;;;19.40;76.00;;;;;;6094443;23;20033;-73
2021/06/22 01:10:00;;;;;;;2.13;0.70;;;19.40;76.00;;;;;;6112603;23;20021;-73
2021/06/22 01:12:27;;;;;;;2.72;1.15;;;19.40;76.20;;;;;;6123516;23;20030;-73
2021/06/22 01:14:56;;;;;;;2.75;1.27;;;19.40;76.20;;;;;;6121932;23;20493;-72
2021/06/22 01:17:23;;;;;;;2.03;0.98;;;19.40;76.30;;;;;;6122908;23;20006;-71
2021/06/22 01:19:49;;;;;;;2.15;1.27;;;19.40;76.30;;;;;;6122248;23;20434;-71
2021/06/22 01:22:16;;;;;;;4.85;1.17;;;19.40;76.30;;;;;;6123276;23;20008;-71
2021/06/22 01:24:45;;;;;;;4.55;1.50;;;19.40;76.30;;;;;;6122944;23;20089;-73
2021/06/22 01:27:12;;;;;;;4.90;3.20;;;19.30;76.30;;;;;;6122418;23;20485;-72
2021/06/22 01:29:41;;;;;;;7.78;4.07;;;19.30;76.30;;;;;;6123524;23;20049;-73
2021/06/22 01:32:11;;;;;;;6.55;3.97;;;19.40;76.40;;;;;;6122050;23;20005;-72
2021/06/22 01:34:39;;;;;;;7.65;3.17;;;19.40;76.40;;;;;;6123574;23;20006;-71
2021/06/22 01:37:08;;;;;;;6.03;2.25;;;19.30;76.50;;;;;;6121929;23;20002;-73
2021/06/22 01:39:41;;;;;;;5.22;3.33;;;19.30;76.60;;;;;;6123222;23;20002;-73
2021/06/22 01:42:08;;;;;;;3.47;1.60;;;19.30;76.70;;;;;;6120808;23;20021;-72
2021/06/22 01:44:38;;;;;;;5.03;1.85;;;19.30;76.60;;;;;;6122922;23;19998;-73
2021/06/22 01:47:07;;;;;;;3.08;1.77;;;19.30;76.60;;;;;;6123227;23;20455;-73
2021/06/22 01:49:34;;;;;;;5.22;1.85;;;19.30;77.20;;;;;;6122295;23;20030;-71
2021/06/22 01:52:02;;;;;;;3.42;1.80;;;19.30;76.60;;;;;;6123256;23;20006;-72
2021/06/22 01:54:29;;;;;;;7.20;1.75;;;19.30;76.70;;;;;;6121166;23;20010;-74
2021/06/22 01:56:57;;;;;;;2.92;1.60;;;19.30;76.70;;;;;;6122877;23;20009;-73
2021/06/22 01:59:24;;;;;;;1.98;1.60;;;19.30;76.80;;;;;;6121663;23;19998;-72
2021/06/22 02:01:51;;;;;;;4.07;1.67;;;19.30;76.80;;;;;;6122774;23;20293;-73
2021/06/22 02:04:20;;;;;;;4.28;1.30;;;19.30;76.80;;;;;;6122578;23;20013;-73
2021/06/22 02:06:48;;;;;;;3.08;1.60;;;19.30;76.80;;;;;;6121985;23;20016;-73
2021/06/22 02:09:14;;;;;;;2.65;1.20;;;19.30;76.80;;;;;;6122182;23;20040;-73
2021/06/22 02:11:41;;;;;;;4.95;1.73;;;19.30;76.80;;;;;;6120486;23;20083;-74
2021/06/22 02:14:07;;;;;;;4.07;1.90;;;19.30;76.80;;;;;;6122282;23;19998;-71
2021/06/22 02:16:34;;;;;;;3.78;1.50;;;19.20;76.80;;;;;;6121245;23;20651;-73
2021/06/22 02:19:01;;;;;;;2.35;1.42;;;19.30;76.90;;;;;;6122246;23;20029;-73
2021/06/22 02:21:30;;;;;;;3.15;1.73;;;19.30;77.50;;;;;;6120742;23;20604;-73
2021/06/22 02:24:06;;;;;;;3.45;1.58;;;19.20;76.80;;;;;;6122479;23;20002;-73
2021/06/22 02:26:32;;;;;;;1.92;1.10;;;19.20;76.80;;;;;;6122381;23;20009;-73
2021/06/22 02:28:59;;;;;;;3.25;1.73;;;19.20;76.90;;;;;;6121124;23;20077;-73
2021/06/22 02:31:25;;;;;;;2.40;1.45;;;19.20;76.90;;;;;;6122168;23;20013;-71
2021/06/22 02:33:52;;;;;;;12.07;6.07;;;19.20;76.90;;;;;;6120748;23;19994;-72
2021/06/22 02:36:20;;;;;;;3.85;2.60;;;19.20;76.90;;;;;;6122003;23;20418;-72
2021/06/22 02:38:46;;;;;;;3.83;2.97;;;19.20;76.90;;;;;;6121171;23;20010;-72
2021/06/22 02:41:13;;;;;;;2.72;2.47;;;19.20;76.90;;;;;;6121968;23;20077;-72
2021/06/22 02:43:39;;;;;;;4.53;2.72;;;19.20;76.90;;;;;;6121431;23;20080;-73
2021/06/22 02:46:06;;;;;;;2.65;1.88;;;19.20;76.90;;;;;;6121138;23;20014;-73
2021/06/22 02:48:32;;;;;;;5.78;1.92;;;19.20;76.80;;;;;;6122055;23;20077;-72
2021/06/22 02:51:38;;;;;;;6.18;2.55;;;19.20;76.80;;;;;;6120451;23;20037;-67
2021/06/22 02:54:05;;;;;;;4.55;2.25;;;19.20;76.80;;;;;;6121923;23;20010;-73
2021/06/22 02:56:31;;;;;;;5.28;1.85;;;19.20;76.90;;;;;;6121278;23;20002;-75
2021/06/22 02:58:58;;;;;;;4.32;2.05;;;19.20;76.80;;;;;;6121249;23;19990;-72
2021/06/22 03:01:24;;;;;;;4.07;1.30;;;19.20;76.80;;;;;;6121841;23;20080;-73
2021/06/22 03:03:51;;;;;;;3.10;1.45;;;19.20;76.80;;;;;;6121462;23;20493;-70
2021/06/22 03:06:17;;;;;;;5.03;1.60;;;19.20;76.80;;;;;;6121608;23;20453;-72
2021/06/22 03:08:44;;;;;;;4.97;2.28;;;19.10;76.80;;;;;;6118322;23;20018;-71
2021/06/22 03:11:10;;;;;;;1.88;1.20;;;19.10;76.80;;;;;;6121827;23;20783;-69
2021/06/22 03:13:37;;;;;;;3.05;1.45;;;19.10;76.70;;;;;;6120857;23;20434;-73
2021/06/22 03:16:03;;;;;;;4.70;1.50;;;19.10;76.80;;;;;;6121570;23;20002;-72
2021/06/22 03:18:30;;;;;;;3.83;1.55;;;19.20;76.90;;;;;;6121493;23;19998;-68
2021/06/22 03:21:00;;;;;;;5.03;1.70;;;19.20;77.00;;;;;;6120744;23;20506;-72
2021/06/22 03:23:26;;;;;;;3.38;1.58;;;19.10;76.90;;;;;;6121983;23;20040;-71
2021/06/22 03:25:53;;;;;;;3.00;1.63;;;19.10;76.90;;;;;;6120261;23;20010;-72
2021/06/22 03:28:19;;;;;;;10.00;3.60;;;19.10;76.80;;;;;;6121667;23;20464;-72
2021/06/22 03:30:47;;;;;;;3.22;1.27;;;19.10;76.60;;;;;;6120398;23;20084;-72
2021/06/22 03:33:18;;;;;;;5.00;1.65;;;19.10;76.50;;;;;;6121787;23;20063;-72
2021/06/22 03:35:45;;;;;;;4.03;1.70;;;19.10;76.50;;;;;;6121474;23;20493;-73
2021/06/22 03:38:11;;;;;;;2.70;1.17;;;19.10;76.40;;;;;;6120393;23;20002;-73
2021/06/22 03:40:38;;;;;;;3.72;1.50;;;19.10;76.40;;;;;;6121904;23;20008;-72
2021/06/22 03:43:07;;;;;;;6.70;2.42;;;19.10;76.50;;;;;;6120292;23;20304;-72
2021/06/22 03:45:34;;;;;;;3.13;1.20;;;19.10;76.60;;;;;;6119733;23;20643;-74
2021/06/22 03:48:00;;;;;;;6.35;1.70;;;19.10;76.70;;;;;;6119964;23;20077;-73
2021/06/22 03:50:27;;;;;;;4.43;1.40;;;19.00;76.70;;;;;;6121392;23;20010;-73
2021/06/22 03:52:53;;;;;;;4.15;1.77;;;19.00;76.70;;;;;;6120644;23;20008;-72
2021/06/22 03:55:26;;;;;;;2.97;1.42;;;19.10;76.80;;;;;;6119775;23;20389;-70
2021/06/22 03:57:54;;;;;;;5.72;2.17;;;19.00;76.60;;;;;;6121784;23;20029;-75
2021/06/22 04:00:22;;;;;;;3.83;2.15;;;19.00;76.60;;;;;;6120601;23;20374;-71
2021/06/22 04:02:49;;;;;;;3.97;1.55;;;19.00;76.60;;;;;;6121023;23;20081;-74
2021/06/22 04:05:16;;;;;;;5.45;1.42;;;18.90;76.50;;;;;;6119526;23;20014;-69
2021/06/22 04:07:43;;;;;;;2.72;1.77;;;19.00;76.50;;;;;;6121068;23;20002;-68
2021/06/22 04:10:10;;;;;;;3.83;1.73;;;19.00;76.50;;;;;;6117908;23;20018;-76
2021/06/22 04:12:37;;;;;;;7.15;2.72;;;18.90;76.30;;;;;;6121196;23;20383;-75
2021/06/22 04:15:04;;;;;;;4.43;2.55;;;18.90;76.30;;;;;;6120171;23;20006;-73
2021/06/22 04:17:31;;;;;;;6.43;2.08;;;19.00;77.30;;;;;;6120548;23;19991;-76
2021/06/22 04:19:57;;;;;;;5.45;2.53;;;18.90;77.50;;;;;;6120510;23;20451;-81
2021/06/22 04:22:24;;;;;;;5.28;1.90;;;18.90;77.60;;;;;;6119872;23;20002;-74
2021/06/22 04:24:51;;;;;;;5.43;1.67;;;18.90;77.50;;;;;;6120748;23;20323;-69
2021/06/22 04:27:18;;;;;;;3.95;2.22;;;18.90;77.40;;;;;;6119582;23;20090;-68
2021/06/22 04:29:45;;;;;;;4.57;1.92;;;18.90;77.20;;;;;;6121092;23;20415;-69
2021/06/22 04:32:11;;;;;;;6.30;2.10;;;18.90;77.10;;;;;;6119824;23;20087;-72
2021/06/22 04:34:38;;;;;;;10.18;5.10;;;18.90;77.00;;;;;;6119567;23;20006;-72
2021/06/22 04:37:17;;;;;;;7.35;4.57;;;18.90;77.00;;;;;;6121389;23;20012;-71
2021/06/22 04:39:54;;;;;;;11.02;3.97;;;18.80;76.80;;;;;;6121586;23;20034;-71
2021/06/22 04:42:21;;;;;;;4.18;3.08;;;18.80;76.80;;;;;;6120082;23;20006;-73
2021/06/22 04:44:52;;;;;;;6.05;3.40;;;18.80;76.80;;;;;;6120476;23;20005;-72
2021/06/22 04:47:19;;;;;;;6.63;2.47;;;18.80;76.80;;;;;;6119721;23;20061;-73
2021/06/22 04:49:45;;;;;;;4.10;2.20;;;18.80;76.70;;;;;;6117982;23;20013;-72
2021/06/22 04:52:51;;;;;;;6.95;2.17;;;18.80;76.60;;;;;;6121217;23;20141;-72
2021/06/22 04:55:58;;;;;;;4.65;2.63;;;18.80;76.60;;;;;;6121160;23;20002;-73
2021/06/22 04:59:04;;;;;;;4.72;2.20;;;18.80;76.60;;;;;;6120163;23;20011;-72
2021/06/22 05:02:10;;;;;;;6.05;2.70;;;18.80;76.60;;;;;;6120670;23;20006;-73
2021/06/22 05:05:19;;;;;;;4.70;2.28;;;18.80;76.70;;;;;;6122571;23;20470;-75
2021/06/22 05:08:25;;;;;;;11.55;3.10;;;18.80;76.70;;;;;;6121129;23;20010;-70
2021/06/22 05:11:32;;;;;;;7.00;2.33;;;18.80;76.60;;;;;;6118550;23;20010;-71
2021/06/22 05:14:39;;;;;;;7.85;1.90;;;18.70;76.60;;;;;;6118626;23;20006;-72
2021/06/22 05:17:46;;;;;;;7.63;2.20;;;18.70;76.60;;;;;;6120250;23;20076;-74
2021/06/22 05:20:55;;;;;;;13.52;3.28;;;18.70;76.70;;;;;;6118846;23;20005;-72
2021/06/22 05:24:05;;;;;;;6.53;2.20;;;18.70;76.70;;;;;;6118918;23;20002;-68
2021/06/22 05:27:17;;;;;;;7.82;2.10;;;18.70;76.80;;;;;;6120161;23;20451;-73
2021/06/22 05:30:23;;;;;;;6.25;3.30;;;18.70;76.90;;;;;;6121043;23;20012;-74
2021/06/22 05:33:29;;;;;;;4.57;1.92;;;18.60;76.90;;;;;;6119663;23;20009;-72
2021/06/22 05:36:35;;;;;;;4.72;1.80;;;18.70;77.00;;;;;;6121455;23;20002;-73
2021/06/22 05:39:41;;;;;;;4.55;1.67;;;18.70;77.10;;;;;;6121279;23;20005;-67
2021/06/22 05:42:47;;;;;;;9.57;4.13;;;18.70;77.10;;;;;;6119699;23;20362;-67
2021/06/22 05:45:54;;;;;;;9.65;3.70;;;18.60;77.10;;;;;;6120307;23;20342;-68
2021/06/22 05:49:00;;;;;;;9.43;2.47;;;18.70;77.10;;;;;;6121070;23;19998;-73
2021/06/22 05:52:06;;;;;;;6.78;2.92;;;18.60;77.10;;;;;;6120670;23;20331;-72
2021/06/22 05:55:18;;;;;;;4.53;2.10;;;18.70;77.10;;;;;;6119795;23;20012;-68
2021/06/22 05:58:27;;;;;;;8.30;3.08;;;18.70;77.10;;;;;;6120977;23;20476;-74
2021/06/22 06:01:33;;;;;;;10.75;1.95;;;18.70;77.10;;;;;;6120985;23;20065;-74
2021/06/22 06:04:39;;;;;;;3.60;2.13;;;18.70;77.10;;;;;;6120068;23;20371;-71
2021/06/22 06:07:45;;;;;;;7.85;2.47;;;18.60;77.10;;;;;;6117172;23;20333;-72
2021/06/22 06:10:51;;;;;;;9.10;3.42;;;18.60;77.10;;;;;;6088465;23;760934;-73
2021/06/22 06:13:57;;;;;;;8.40;2.53;;;18.60;77.10;;;;;;6122243;23;20002;-74
2021/06/22 06:17:03;;;;;;;6.90;3.40;;;18.60;77.10;;;;;;6120840;23;20104;-73
2021/06/22 06:20:10;;;;;;;7.47;2.25;;;18.60;77.00;;;;;;6121944;23;19998;-74
2021/06/22 06:23:16;;;;;;;8.35;3.13;;;18.60;76.90;;;;;;6122271;23;20026;-72
2021/06/22 06:26:22;;;;;;;9.93;2.83;;;18.60;76.90;;;;;;6121156;23;20057;-74
2021/06/22 06:32:34;;;;;;;9.98;1.98;;;18.60;77.00;;;;;;6122389;23;20037;-73
2021/06/22 06:35:40;;;;;;;6.13;2.20;;;18.60;77.10;;;;;;6122720;23;20006;-74
2021/06/22 06:38:46;;;;;;;5.68;2.47;;;18.70;77.20;;;;;;6121315;23;20096;-74
2021/06/22 06:41:52;;;;;;;8.65;2.80;;;18.60;77.20;;;;;;6121808;23;20053;-74
2021/06/22 06:44:58;;;;;;;11.50;3.38;;;18.60;77.20;;;;;;6122127;23;20418;-74
2021/06/22 06:48:04;;;;;;;8.52;2.55;;;18.60;77.10;;;;;;6121387;23;20010;-74
2021/06/22 06:51:10;;;;;;;5.07;3.22;;;18.70;77.20;;;;;;6120595;23;20013;-74
2021/06/22 06:54:16;;;;;;;9.98;2.38;;;18.70;77.20;;;;;;6122572;23;20029;-72
2021/06/22 06:57:23;;;;;;;7.63;2.58;;;18.70;77.20;;;;;;6121826;23;20016;-74
2021/06/22 07:00:29;;;;;;;7.75;2.78;;;18.70;77.30;;;;;;6120574;23;20009;-71
2021/06/22 07:03:36;;;;;;;8.38;3.53;;;18.70;77.40;;;;;;6121072;23;20013;-74
2021/06/22 07:06:42;;;;;;;7.40;2.60;;;18.70;77.40;;;;;;6120096;23;20398;-74
2021/06/22 07:09:49;;;;;;;6.55;2.70;;;18.70;77.50;;;;;;6121078;23;20020;-73
2021/06/22 07:12:57;;;;;;;8.25;2.75;;;18.80;78.10;;;;;;6120751;23;20057;-74
2021/06/22 07:16:03;;;;;;;7.65;2.38;;;18.70;77.40;;;;;;6122112;23;20049;-71
2021/06/22 07:19:09;;;;;;;7.70;2.53;;;18.70;77.40;;;;;;6121796;23;20005;-73
2021/06/22 07:22:15;;;;;;;10.68;3.15;;;18.80;77.50;;;;;;6120882;23;20330;-75
2021/06/22 07:25:25;;;;;;;8.23;2.75;;;18.80;77.50;;;;;;6121091;23;20002;-76
2021/06/22 07:28:31;;;;;;;8.95;3.83;;;18.70;77.50;;;;;;6121749;23;20300;-74
2021/06/22 07:31:40;;;;;;;8.40;3.67;;;18.80;77.80;;;;;;6121403;23;20070;-74
2021/06/22 07:34:46;;;;;;;9.77;2.95;;;18.80;77.90;;;;;;6120300;23;20006;-74
2021/06/22 07:37:52;;;;;;;6.45;2.38;;;18.80;78.00;;;;;;6121516;23;20009;-73
2021/06/22 07:40:58;;;;;;;12.30;3.70;;;18.70;78.10;;;;;;6122118;23;20005;-72
2021/06/22 07:44:04;;;;;;;7.88;2.35;;;18.70;78.20;;;;;;6120356;23;20073;-71
2021/06/22 07:47:10;;;;;;;5.10;2.38;;;18.80;78.30;;;;;;6120533;23;20383;-73
2021/06/22 07:50:16;;;;;;;5.57;2.05;;;18.70;78.30;;;;;;6121837;23;19998;-73
2021/06/22 07:53:22;;;;;;;9.18;2.65;;;18.70;78.30;;;;;;6121264;23;20025;-73
2021/06/22 07:56:28;;;;;;;4.10;2.20;;;18.70;79.00;;;;;;6120211;23;20010;-73
2021/06/22 07:59:34;;;;;;;3.65;1.90;;;18.80;78.60;;;;;;6121401;23;20052;-71
2021/06/22 08:02:40;;;;;;;9.63;2.15;;;18.70;78.60;;;;;;6121585;23;20081;-74
2021/06/22 08:05:46;;;;;;;8.68;2.22;;;18.80;78.70;;;;;;6120228;23;20477;-72
2021/06/22 08:08:52;;;;;;;6.28;1.88;;;18.80;78.70;;;;;;6120422;23;20342;-74
2021/06/22 08:12:00;;;;;;;12.05;2.50;;;18.80;78.80;;;;;;6123941;23;20035;-73
2021/06/22 08:15:06;;;;;;;8.23;2.15;;;18.80;78.90;;;;;;6123320;23;20006;-74
2021/06/22 08:18:12;;;;;;;6.60;1.90;;;18.80;78.90;;;;;;6122225;23;19998;-73
2021/06/22 08:21:18;;;;;;;3.63;1.67;;;18.80;79.00;;;;;;6122590;23;20375;-73
2021/06/22 08:24:25;;;;;;;5.03;1.88;;;18.80;79.00;;;;;;6123412;23;20002;-73
2021/06/22 08:27:31;;;;;;;6.55;1.70;;;18.80;79.00;;;;;;6122124;23;20077;-74
2021/06/22 08:30:37;;;;;;;7.70;4.22;;;18.80;79.00;;;;;;6122045;23;20049;-74
2021/06/22 08:33:46;;;;;;;6.90;2.42;;;18.80;79.00;;;;;;6123591;23;20009;-73
2021/06/22 08:36:14;;;;;;;4.72;1.85;;;18.80;79.10;;;;;;6122807;23;20061;-73
2021/06/22 08:38:41;;;;;;;5.85;1.85;;;18.80;79.20;;;;;;6122373;23;20001;-72
2021/06/22 08:41:09;;;;;;;4.72;1.73;;;18.80;79.30;;;;;;6123430;23;20005;-72
2021/06/22 08:43:36;;;;;;;6.55;2.42;;;18.80;79.40;;;;;;6120631;23;20009;-74
2021/06/22 08:46:04;;;;;;;7.10;2.40;;;18.80;79.50;;;;;;6123415;23;20018;-72
2021/06/22 08:48:32;;;;;;;7.30;2.65;;;18.80;79.60;;;;;;6121903;23;20002;-73
2021/06/22 08:50:59;;;;;;;6.30;2.30;;;18.80;79.70;;;;;;6121397;23;20005;-72
2021/06/22 08:53:27;;;;;;;5.72;2.42;;;18.80;79.80;;;;;;6123097;23;20012;-73
2021/06/22 08:55:53;;;;;;;4.70;2.00;;;18.80;79.80;;;;;;6121579;23;20006;-70
2021/06/22 08:58:20;;;;;;;7.80;3.00;;;18.80;79.90;;;;;;6123180;23;20041;-73
2021/06/22 09:00:49;;;;;;;9.07;2.65;;;18.80;79.90;;;;;;6121729;23;20472;-73
2021/06/22 09:03:17;;;;;;;10.85;4.25;;;18.80;80.00;;;;;;6122938;23;20002;-73
2021/06/22 09:05:53;;;;;;;5.63;2.38;;;18.80;80.20;;;;;;6122057;23;20010;-71
2021/06/22 09:08:20;;;;;;;9.57;3.92;;;18.80;80.10;;;;;;6122714;23;20051;-72
2021/06/22 09:10:46;;;;;;;7.07;2.25;;;18.80;80.20;;;;;;6122497;23;20434;-72
2021/06/22 09:13:19;;;;;;;7.03;2.40;;;18.80;80.30;;;;;;6121964;23;19998;-73
2021/06/22 09:15:47;;;;;;;5.95;3.40;;;18.80;80.40;;;;;;6122874;23;20338;-74
2021/06/22 09:18:35;;;;;;;6.93;2.95;;;18.80;80.40;;;;;;6120079;23;20381;-75
2021/06/22 09:21:03;;;;;;;8.25;2.53;;;18.80;80.40;;;;;;6122591;23;20445;-72
2021/06/22 09:23:32;;;;;;;9.07;3.40;;;18.80;80.50;;;;;;6122111;23;20053;-72
2021/06/22 09:25:59;;;;;;;7.47;2.60;;;18.80;80.50;;;;;;6122201;23;20010;-71
2021/06/22 09:28:31;;;;;;;5.68;2.38;;;18.80;80.50;;;;;;6122866;23;20304;-72
2021/06/22 09:31:18;;;;;;;8.45;4.05;;;18.80;80.60;;;;;;6121481;23;20009;-72
2021/06/22 09:33:51;;;;;;;7.03;2.70;;;18.80;80.60;;;;;;6122813;23;20009;-73
2021/06/22 09:36:23;;;;;;;8.38;2.75;;;18.80;80.60;;;;;;6119959;23;20006;-72
2021/06/22 09:39:02;;;;;;;7.95;2.85;;;18.80;80.60;;;;;;6122508;23;20006;-73
2021/06/22 09:41:33;;;;;;;8.27;3.60;;;18.80;80.70;;;;;;6123450;23;20378;-73
2021/06/22 09:44:06;;;;;;;9.73;2.63;;;18.80;80.80;;;;;;6121583;23;19998;-72
2021/06/22 09:46:44;;;;;;;9.48;3.47;;;18.80;80.90;;;;;;6122492;23;20010;-73
2021/06/22 09:49:31;;;;;;;8.95;3.35;;;18.80;81.00;;;;;;6121381;23;20013;-72
2021/06/22 09:52:08;;;;;;;12.05;3.25;;;18.80;81.00;;;;;;6122052;23;20415;-73
2021/06/22 09:55:32;;;;;;;9.25;3.25;;;18.80;81.10;;;;;;6122928;23;20331;-72
2021/06/22 09:58:38;;;;;;;12.30;3.35;;;18.80;81.20;;;;;;6121752;23;19998;-73
2021/06/22 10:01:25;;;;;;;12.75;2.70;;;18.80;81.30;;;;;;6121557;23;20009;-69
2021/06/22 10:04:14;;;;;;;15.27;3.42;;;18.80;81.40;;;;;;6122195;23;20001;-72
2021/06/22 10:07:22;;;;;;;13.15;4.22;;;18.80;81.60;;;;;;6121391;23;20010;-72
2021/06/22 10:10:31;;;;;;;9.60;4.28;;;18.80;81.80;;;;;;6120864;23;20079;-73
2021/06/22 10:13:35;;;;;;;15.05;3.63;;;18.80;82.00;;;;;;6122200;23;20012;-71
2021/06/22 10:16:40;;;;;;;21.17;4.22;;;18.90;82.10;;;;;;6122568;23;20005;-72
2021/06/22 10:19:46;;;;;;;15.88;4.63;;;18.90;82.30;;;;;;6120870;23;20084;-68
2021/06/22 10:22:53;;;;;;;17.92;3.55;;;18.90;82.60;;;;;;6121721;23;20009;-71
2021/06/22 10:25:59;;;;;;;18.00;3.83;;;18.90;82.70;;;;;;6122022;23;20010;-72
2021/06/22 10:29:05;;;;;;;22.13;4.85;;;19.00;82.80;;;;;;6121751;23;20006;-72
2021/06/22 10:32:12;;;;;;;18.88;3.40;;;19.10;82.70;;;;;;6120933;23;20499;-72
2021/06/22 10:35:21;;;;;;;12.18;3.30;;;19.10;82.40;;;;;;6122336;23;20013;-71
2021/06/22 10:38:27;;;;;;;15.70;4.03;;;19.10;82.10;;;;;;6120257;23;20006;-67
2021/06/22 10:41:13;;;;;;;;;;;19.10;81.80;;;;;;6121748;23;20006;-69
2021/06/22 10:44:19;;;;;;;20.38;6.07;;;19.20;81.60;;;;;;6121654;23;19905;-70
2021/06/22 10:47:17;;;;;;;14.40;3.75;;;19.20;81.00;;;;;;6121865;23;20021;-70
2021/06/22 10:50:24;;;;;;;14.02;3.33;;;19.20;80.60;;;;;;6120620;23;20006;-72
2021/06/22 10:53:33;;;;;;;12.73;3.47;;;19.30;80.40;;;;;;6121043;23;20097;-70
2021/06/22 10:56:42;;;;;;;8.50;2.67;;;19.30;80.20;;;;;;6121822;23;20006;-66
2021/06/22 10:59:15;;;;;;;14.90;5.32;;;19.30;80.20;;;;;;6121767;23;20002;-67
2021/06/22 11:01:53;;;;;;;15.40;3.15;;;19.30;80.20;;;;;;6121199;23;20426;-67
2021/06/22 11:05:00;;;;;;;13.77;4.07;;;19.30;80.20;;;;;;6121875;23;20001;-71
2021/06/22 11:08:06;;;;;;;17.10;4.32;;;19.30;80.20;;;;;;6121124;23;20036;-71
2021/06/22 11:10:55;;;;;;;9.48;3.03;;;19.30;80.10;;;;;;6120672;23;20489;-68
2021/06/22 11:14:13;;;;;;;18.73;4.30;;;19.30;80.00;;;;;;6121844;23;20001;-68
2021/06/22 11:17:19;;;;;;;16.92;4.75;;;19.30;80.00;;;;;;6121753;23;20010;-73
2021/06/22 11:20:29;;;;;;;11.57;4.30;;;19.30;79.90;;;;;;6121015;23;20072;-73
2021/06/22 11:23:23;;;;;;;19.58;3.67;;;19.30;79.60;;;;;;6121078;23;20002;-72
2021/06/22 11:26:44;;;;;;;12.65;3.40;;;19.30;79.20;;;;;;6121456;23;20018;-72
2021/06/22 11:29:37;;;;;;;8.75;2.78;;;19.30;78.70;;;;;;6120818;23;20010;-75
2021/06/22 11:32:48;;;;;;;12.77;3.60;;;19.40;78.50;;;;;;6120679;23;19998;-73
2021/06/22 11:35:54;;;;;;;14.65;3.17;;;19.40;78.40;;;;;;6121459;23;20427;-72
2021/06/22 11:39:00;;;;;;;17.85;3.17;;;19.50;78.40;;;;;;6121906;23;20008;-73
2021/06/22 11:42:05;;;;;;;17.45;3.95;;;19.60;78.30;;;;;;6120261;23;20002;-73
2021/06/22 11:44:51;;;;;;;13.85;3.92;;;19.70;77.40;;;;;;6120734;23;20005;-72
2021/06/22 11:47:28;;;;;;;11.32;3.38;;;19.80;76.70;;;;;;6121593;23;20018;-72
2021/06/22 11:50:15;;;;;;;16.25;3.70;;;19.80;75.60;;;;;;6120672;23;20030;-72
2021/06/22 11:53:21;;;;;;;12.30;5.22;;;19.90;75.20;;;;;;6121451;23;20343;-71
2021/06/22 11:56:27;;;;;;;14.10;3.35;;;20.00;74.40;;;;;;6121421;23;20452;-73
2021/06/22 11:59:33;;;;;;;12.18;3.75;;;20.00;73.80;;;;;;6120065;23;20080;-72
2021/06/22 12:02:39;;;;;;;8.45;3.13;;;20.10;73.40;;;;;;6120866;23;20002;-72
2021/06/22 12:05:48;;;;;;;11.82;2.58;;;20.20;72.70;;;;;;6121193;23;20707;-72
2021/06/22 12:08:54;;;;;;;12.25;2.58;;;20.20;72.20;;;;;;6121015;23;20017;-73
2021/06/22 12:12:03;;;;;;;7.53;2.05;;;20.30;72.30;;;;;;6120209;23;20006;-72
2021/06/22 12:15:09;;;;;;;12.63;3.03;;;20.30;72.30;;;;;;6121232;23;20841;-72
2021/06/22 12:18:17;;;;;;;9.55;2.42;;;20.40;72.40;;;;;;6121437;23;20419;-73
2021/06/22 12:21:23;;;;;;;12.55;3.45;;;20.40;71.80;;;;;;6120451;23;20073;-72
2021/06/22 12:24:29;;;;;;;12.52;3.35;;;20.50;71.70;;;;;;6120476;23;20034;-73
2021/06/22 12:27:35;;;;;;;9.75;3.22;;;20.50;71.80;;;;;;6121193;23;20025;-75
2021/06/22 12:30:50;;;;;;;15.02;3.20;;;20.60;71.90;;;;;;6121330;23;20121;-71
2021/06/22 12:34:02;;;;;;;19.95;3.90;;;20.60;71.90;;;;;;6119690;23;20493;-72
2021/06/22 12:37:08;;;;;;;15.68;4.38;;;20.60;71.80;;;;;;6120835;23;20010;-73
2021/06/22 12:40:17;;;;;;;13.32;4.15;;;20.70;71.50;;;;;;6121374;23;19998;-73
2021/06/22 12:43:26;;;;;;;11.80;4.32;;;20.70;71.00;;;;;;6120624;23;20002;-73
2021/06/22 12:46:44;;;;;;;17.40;4.28;;;20.70;70.90;;;;;;6119662;23;20085;-72
2021/06/22 12:49:50;;;;;;;17.98;4.82;;;20.80;70.70;;;;;;6120957;23;20017;-73
2021/06/22 12:52:56;;;;;;;13.27;4.85;;;20.80;70.50;;;;;;6121156;23;20016;-73
2021/06/22 12:56:05;;;;;;;18.73;4.18;;;20.80;70.40;;;;;;6120019;23;20073;-71
2021/06/22 12:59:11;;;;;;;18.83;4.47;;;20.80;70.40;;;;;;6121979;23;20006;-73
2021/06/22 13:02:03;;;;;;;8.77;3.85;;;20.80;70.40;;;;;;6122999;23;20497;-73
2021/06/22 13:05:10;;;;;;;23.95;5.10;;;20.90;70.50;;;;;;6123160;23;20002;-75
2021/06/22 13:07:55;;;;;;;;;;;20.90;70.60;;;;;;6122216;23;20014;-74
2021/06/22 13:11:02;;;;;;;20.95;3.65;;;20.80;70.60;;;;;;6122758;23;19919;-73
2021/06/22 13:14:08;;;;;;;18.20;3.58;;;20.80;70.80;;;;;;6122423;23;20006;-73
2021/06/22 13:17:20;;;;;;;13.98;3.20;;;20.90;71.20;;;;;;6121799;23;20037;-74
2021/06/22 13:20:26;;;;;;;17.27;3.83;;;20.80;71.60;;;;;;6122459;23;20076;-76
2021/06/22 13:23:41;;;;;;;16.88;4.18;;;20.80;71.70;;;;;;6122679;23;20045;-72
2021/06/22 13:26:47;;;;;;;17.30;3.90;;;20.80;71.90;;;;;;6122074;23;20069;-74
2021/06/22 13:29:52;;;;;;;11.88;4.00;;;20.80;72.10;;;;;;6121532;23;20446;-73
2021/06/22 13:32:50;;;;;;;21.27;5.03;;;20.80;72.30;;;;;;6122988;23;20002;-70
2021/06/22 13:35:56;;;;;;;12.73;4.90;;;20.80;72.40;;;;;;6122904;23;20056;-68
2021/06/22 13:39:02;;;;;;;19.17;4.03;;;20.80;72.50;;;;;;6121538;23;20013;-69
2021/06/22 13:42:11;;;;;;;17.23;4.28;;;20.80;72.60;;;;;;6120352;23;20085;-67
2021/06/22 13:45:32;;;;;;;29.38;5.80;;;20.70;72.70;;;;;;6122550;23;20017;-72
2021/06/22 13:48:48;;;;;;;19.67;7.35;;;20.70;73.00;;;;;;6122486;23;20018;-70
2021/06/22 13:51:54;;;;;;;27.92;8.50;;;20.70;73.10;;;;;;6121243;23;20006;-74
2021/06/22 13:55:12;;;;;;;27.98;5.28;;;20.70;73.40;;;;;;6122076;23;20109;-72
2021/06/22 13:58:18;;;;;;;17.60;4.13;;;20.70;73.70;;;;;;6122982;23;20012;-71
2021/06/22 14:01:25;;;;;;;24.08;6.22;;;20.70;73.80;;;;;;6121871;23;20002;-74
2021/06/22 14:04:31;;;;;;;20.77;5.18;;;20.60;74.20;;;;;;6121016;23;20338;-71
2021/06/22 14:07:39;;;;;;;19.77;4.38;;;20.60;74.40;;;;;;6122135;23;20092;-73
2021/06/22 14:10:45;;;;;;;23.05;4.72;;;20.60;74.60;;;;;;6121990;23;20084;-75
2021/06/22 14:13:53;;;;;;;27.50;6.03;;;20.50;74.70;;;;;;6120190;23;20009;-70
2021/06/22 14:16:20;;;;;;;21.50;4.90;;;20.50;75.00;;;;;;6121482;23;20064;-77
2021/06/22 14:18:46;;;;;;;20.30;5.22;;;20.40;75.00;;;;;;6122639;23;20002;-75
2021/06/22 14:21:13;;;;;;;30.27;7.38;;;20.40;75.10;;;;;;6119484;23;20053;-77
2021/06/22 14:23:41;;;;;;;23.10;5.13;;;20.30;74.90;;;;;;6122409;23;20409;-75
2021/06/22 14:26:08;;;;;;;15.23;5.35;;;20.30;75.30;;;;;;6122136;23;20434;-72
2021/06/22 14:28:35;;;;;;;23.55;4.82;;;20.20;74.20;;;;;;6122152;23;20006;-80
2021/06/22 14:31:03;;;;;;;22.33;4.63;;;20.20;73.60;;;;;;6120063;23;20006;-74